sensor_id;sensor_type;location;lat;lon;timestamp;pressure;altitude;pressure_sealevel;temperature;humidity
62524;BME280;53689;56.878;60.672;2023-05-19T00:01:12;99086.16;;;22.11;22.68
62524;BME280;53689;56.878;60.672;2023-05-19T00:03:49;99081.78;;;22.10;22.41
62524;BME280;53689;56.878;60.672;2023-05-19T00:06:16;99084.84;;;22.07;22.33
62524;BME280;53689;56.878;60.672;2023-05-19T00:08:46;99083.81;;;22.08;22.50
62524;BME280;53689;56.878;60.672;2023-05-19T00:11:14;99087.53;;;22.07;22.41
62524;BME280;53689;56.878;60.672;2023-05-19T00:13:41;99078.78;;;22.04;22.15
62524;BME280;53689;56.878;60.672;2023-05-19T00:16:09;99078.41;;;22.08;22.40
62524;BME280;53689;56.878;60.672;2023-05-19T00:18:36;99080.47;;;22.06;22.54
62524;BME280;53689;56.878;60.672;2023-05-19T00:21:05;99080.09;;;22.09;22.65
62524;BME280;53689;56.878;60.672;2023-05-19T00:23:32;99091.09;;;22.07;22.55
62524;BME280;53689;56.878;60.672;2023-05-19T00:25:59;99095.25;;;22.10;22.71
62524;BME280;53689;56.878;60.672;2023-05-19T00:28:27;99090.06;;;22.08;22.77
62524;BME280;53689;56.878;60.672;2023-05-19T00:30:54;99088.38;;;22.07;22.84
62524;BME280;53689;56.878;60.672;2023-05-19T00:33:22;99091.75;;;22.09;22.79
62524;BME280;53689;56.878;60.672;2023-05-19T00:35:49;99088.56;;;22.06;22.73
62524;BME280;53689;56.878;60.672;2023-05-19T00:38:17;99086.34;;;22.09;22.54
62524;BME280;53689;56.878;60.672;2023-05-19T00:40:44;99095.47;;;22.08;22.66
62524;BME280;53689;56.878;60.672;2023-05-19T00:43:12;99092.94;;;22.07;22.35
62524;BME280;53689;56.878;60.672;2023-05-19T00:45:39;99090.72;;;22.10;22.06
62524;BME280;53689;56.878;60.672;2023-05-19T00:48:06;99098.09;;;22.16;22.56
62524;BME280;53689;56.878;60.672;2023-05-19T00:50:34;99095.19;;;22.18;22.00
62524;BME280;53689;56.878;60.672;2023-05-19T00:53:02;99095.56;;;22.15;22.63
62524;BME280;53689;56.878;60.672;2023-05-19T00:55:31;99091.84;;;22.16;22.60
62524;BME280;53689;56.878;60.672;2023-05-19T00:57:59;99091.84;;;22.16;22.56
62524;BME280;53689;56.878;60.672;2023-05-19T01:00:28;99097.06;;;22.17;22.42
62524;BME280;53689;56.878;60.672;2023-05-19T01:02:56;99095.44;;;22.31;22.36
62524;BME280;53689;56.878;60.672;2023-05-19T01:05:23;99096.09;;;22.49;21.66
62524;BME280;53689;56.878;60.672;2023-05-19T01:07:52;99096.66;;;22.44;21.80
62524;BME280;53689;56.878;60.672;2023-05-19T01:10:19;99099.25;;;22.37;21.58
62524;BME280;53689;56.878;60.672;2023-05-19T01:12:48;99093.06;;;22.28;21.85
62524;BME280;53689;56.878;60.672;2023-05-19T01:15:15;99088.22;;;22.24;21.85
62524;BME280;53689;56.878;60.672;2023-05-19T01:17:44;99089.63;;;22.20;22.42
62524;BME280;53689;56.878;60.672;2023-05-19T01:20:15;99088.78;;;22.19;22.62
62524;BME280;53689;56.878;60.672;2023-05-19T01:22:59;99083.75;;;22.16;22.90
62524;BME280;53689;56.878;60.672;2023-05-19T01:25:38;99085.97;;;22.12;22.29
62524;BME280;53689;56.878;60.672;2023-05-19T01:28:19;99093.53;;;22.17;22.95
62524;BME280;53689;56.878;60.672;2023-05-19T01:30:53;99099.28;;;22.14;23.33
62524;BME280;53689;56.878;60.672;2023-05-19T01:33:21;99091.19;;;22.14;24.17
62524;BME280;53689;56.878;60.672;2023-05-19T01:35:49;99095.19;;;22.18;23.15
62524;BME280;53689;56.878;60.672;2023-05-19T01:38:17;99097.72;;;22.20;23.56
62524;BME280;53689;56.878;60.672;2023-05-19T01:40:47;99088.91;;;22.26;23.22
62524;BME280;53689;56.878;60.672;2023-05-19T01:43:16;99093.81;;;22.22;23.75
62524;BME280;53689;56.878;60.672;2023-05-19T01:45:43;99094.66;;;22.23;22.86
62524;BME280;53689;56.878;60.672;2023-05-19T01:48:13;99104.78;;;22.21;23.40
62524;BME280;53689;56.878;60.672;2023-05-19T01:50:40;99091.13;;;22.22;23.44
62524;BME280;53689;56.878;60.672;2023-05-19T01:53:08;99095.50;;;22.23;22.69
62524;BME280;53689;56.878;60.672;2023-05-19T01:55:36;99092.16;;;22.21;23.10
62524;BME280;53689;56.878;60.672;2023-05-19T01:58:08;99106.22;;;22.31;22.53
62524;BME280;53689;56.878;60.672;2023-05-19T02:00:42;99099.81;;;22.33;22.47
62524;BME280;53689;56.878;60.672;2023-05-19T02:03:14;99098.94;;;22.32;22.10
62524;BME280;53689;56.878;60.672;2023-05-19T02:05:44;99091.00;;;22.39;21.70
62524;BME280;53689;56.878;60.672;2023-05-19T02:08:19;99088.28;;;22.39;21.58
62524;BME280;53689;56.878;60.672;2023-05-19T02:10:53;99096.81;;;22.42;21.35
62524;BME280;53689;56.878;60.672;2023-05-19T02:13:21;99093.97;;;22.44;22.05
62524;BME280;53689;56.878;60.672;2023-05-19T02:15:51;99099.34;;;22.44;21.28
62524;BME280;53689;56.878;60.672;2023-05-19T02:18:21;99098.72;;;22.42;22.00
62524;BME280;53689;56.878;60.672;2023-05-19T02:20:49;99098.06;;;22.40;22.59
62524;BME280;53689;56.878;60.672;2023-05-19T02:23:16;99098.88;;;22.40;22.72
62524;BME280;53689;56.878;60.672;2023-05-19T02:25:44;99097.22;;;22.39;22.60
62524;BME280;53689;56.878;60.672;2023-05-19T02:28:11;99095.63;;;22.45;22.24
62524;BME280;53689;56.878;60.672;2023-05-19T02:30:38;99099.84;;;22.48;22.15
62524;BME280;53689;56.878;60.672;2023-05-19T02:33:05;99096.28;;;22.47;22.10
62524;BME280;53689;56.878;60.672;2023-05-19T02:35:34;99101.50;;;22.49;22.43
62524;BME280;53689;56.878;60.672;2023-05-19T02:38:01;99100.84;;;22.47;22.48
62524;BME280;53689;56.878;60.672;2023-05-19T02:40:28;99096.28;;;22.47;22.54
62524;BME280;53689;56.878;60.672;2023-05-19T02:42:56;99092.75;;;22.47;23.16
62524;BME280;53689;56.878;60.672;2023-05-19T02:45:23;99097.50;;;22.44;22.81
62524;BME280;53689;56.878;60.672;2023-05-19T02:47:50;99100.50;;;22.50;22.94
62524;BME280;53689;56.878;60.672;2023-05-19T02:50:17;99099.69;;;22.49;22.51
62524;BME280;53689;56.878;60.672;2023-05-19T02:52:46;99092.28;;;22.43;22.51
62524;BME280;53689;56.878;60.672;2023-05-19T02:55:13;99097.97;;;22.48;22.36
62524;BME280;53689;56.878;60.672;2023-05-19T02:57:40;99096.47;;;22.45;22.96
62524;BME280;53689;56.878;60.672;2023-05-19T03:00:08;99093.47;;;22.40;23.04
62524;BME280;53689;56.878;60.672;2023-05-19T03:02:36;99098.41;;;22.37;22.97
62524;BME280;53689;56.878;60.672;2023-05-19T03:05:03;99094.84;;;22.21;23.51
62524;BME280;53689;56.878;60.672;2023-05-19T03:07:31;99099.94;;;21.93;23.53
62524;BME280;53689;56.878;60.672;2023-05-19T03:09:59;99102.34;;;21.87;22.37
62524;BME280;53689;56.878;60.672;2023-05-19T03:12:27;99096.09;;;21.55;22.10
62524;BME280;53689;56.878;60.672;2023-05-19T03:14:54;99103.41;;;21.46;22.27
62524;BME280;53689;56.878;60.672;2023-05-19T03:17:22;99109.78;;;21.54;21.78
62524;BME280;53689;56.878;60.672;2023-05-19T03:19:49;99112.50;;;21.45;21.67
62524;BME280;53689;56.878;60.672;2023-05-19T03:22:16;99103.28;;;21.40;21.47
62524;BME280;53689;56.878;60.672;2023-05-19T03:24:44;99103.03;;;21.49;21.50
62524;BME280;53689;56.878;60.672;2023-05-19T03:27:13;99105.81;;;21.73;21.07
62524;BME280;53689;56.878;60.672;2023-05-19T03:29:40;99097.19;;;21.78;21.45
62524;BME280;53689;56.878;60.672;2023-05-19T03:32:07;99099.19;;;21.84;21.16
62524;BME280;53689;56.878;60.672;2023-05-19T03:34:35;99103.38;;;21.86;21.18
62524;BME280;53689;56.878;60.672;2023-05-19T03:37:02;99104.78;;;21.74;21.52
62524;BME280;53689;56.878;60.672;2023-05-19T03:39:29;99103.63;;;21.37;21.52
62524;BME280;53689;56.878;60.672;2023-05-19T03:41:57;99097.81;;;21.48;21.79
62524;BME280;53689;56.878;60.672;2023-05-19T03:44:26;99090.56;;;21.57;21.68
62524;BME280;53689;56.878;60.672;2023-05-19T03:46:53;99097.44;;;21.28;21.20
62524;BME280;53689;56.878;60.672;2023-05-19T03:49:58;99087.44;;;21.37;20.93
62524;BME280;53689;56.878;60.672;2023-05-19T03:53:01;99092.03;;;21.68;21.54
62524;BME280;53689;56.878;60.672;2023-05-19T03:55:31;99087.50;;;21.60;20.64
62524;BME280;53689;56.878;60.672;2023-05-19T03:57:58;99082.75;;;21.70;21.00
62524;BME280;53689;56.878;60.672;2023-05-19T04:00:27;99089.22;;;21.53;20.66
62524;BME280;53689;56.878;60.672;2023-05-19T04:02:54;99097.03;;;20.99;20.84
62524;BME280;53689;56.878;60.672;2023-05-19T04:05:22;99097.22;;;21.06;21.70
62524;BME280;53689;56.878;60.672;2023-05-19T04:07:49;99085.69;;;21.20;20.85
62524;BME280;53689;56.878;60.672;2023-05-19T04:10:16;99086.28;;;21.39;20.77
62524;BME280;53689;56.878;60.672;2023-05-19T04:12:43;99080.91;;;21.31;21.26
62524;BME280;53689;56.878;60.672;2023-05-19T04:15:10;99084.75;;;21.37;21.22
62524;BME280;53689;56.878;60.672;2023-05-19T04:17:40;99082.91;;;21.37;20.99
62524;BME280;53689;56.878;60.672;2023-05-19T04:20:08;99086.00;;;21.26;20.85
62524;BME280;53689;56.878;60.672;2023-05-19T04:22:36;99081.50;;;21.10;20.59
62524;BME280;53689;56.878;60.672;2023-05-19T04:25:03;99087.47;;;20.97;20.39
62524;BME280;53689;56.878;60.672;2023-05-19T04:27:30;99090.78;;;21.15;20.49
62524;BME280;53689;56.878;60.672;2023-05-19T04:29:58;99083.53;;;21.16;21.16
62524;BME280;53689;56.878;60.672;2023-05-19T04:32:26;99093.06;;;20.87;20.64
62524;BME280;53689;56.878;60.672;2023-05-19T04:34:55;99090.69;;;20.75;20.09
62524;BME280;53689;56.878;60.672;2023-05-19T04:37:24;99085.69;;;20.56;20.53
62524;BME280;53689;56.878;60.672;2023-05-19T04:39:52;99083.88;;;20.40;20.52
62524;BME280;53689;56.878;60.672;2023-05-19T04:42:22;99083.88;;;20.23;20.89
62524;BME280;53689;56.878;60.672;2023-05-19T04:44:50;99082.88;;;20.32;20.67
62524;BME280;53689;56.878;60.672;2023-05-19T04:47:18;99085.06;;;20.29;20.78
62524;BME280;53689;56.878;60.672;2023-05-19T04:49:46;99085.72;;;20.06;21.58
62524;BME280;53689;56.878;60.672;2023-05-19T04:52:15;99095.00;;;20.12;21.18
62524;BME280;53689;56.878;60.672;2023-05-19T04:54:43;99091.28;;;19.96;21.46
62524;BME280;53689;56.878;60.672;2023-05-19T04:57:12;99088.75;;;20.28;21.41
62524;BME280;53689;56.878;60.672;2023-05-19T04:59:39;99085.72;;;20.39;21.26
62524;BME280;53689;56.878;60.672;2023-05-19T05:02:07;99087.03;;;20.51;21.03
62524;BME280;53689;56.878;60.672;2023-05-19T05:04:36;99082.78;;;20.90;20.94
62524;BME280;53689;56.878;60.672;2023-05-19T05:07:03;99080.13;;;20.57;20.78
62524;BME280;53689;56.878;60.672;2023-05-19T05:09:33;99078.66;;;20.21;21.00
62524;BME280;53689;56.878;60.672;2023-05-19T05:12:01;99069.44;;;20.32;20.52
62524;BME280;53689;56.878;60.672;2023-05-19T05:14:29;99089.94;;;20.25;21.09
62524;BME280;53689;56.878;60.672;2023-05-19T05:16:56;99080.84;;;20.09;21.19
62524;BME280;53689;56.878;60.672;2023-05-19T05:19:24;99074.16;;;20.22;20.56
62524;BME280;53689;56.878;60.672;2023-05-19T05:21:53;99068.19;;;20.68;20.24
62524;BME280;53689;56.878;60.672;2023-05-19T05:24:20;99063.19;;;20.32;20.61
62524;BME280;53689;56.878;60.672;2023-05-19T05:26:54;99062.88;;;20.27;20.68
62524;BME280;53689;56.878;60.672;2023-05-19T05:29:22;99067.41;;;20.43;20.15
62524;BME280;53689;56.878;60.672;2023-05-19T05:31:49;99063.72;;;20.27;20.85
62524;BME280;53689;56.878;60.672;2023-05-19T05:34:16;99072.13;;;20.24;20.55
62524;BME280;53689;56.878;60.672;2023-05-19T05:36:45;99074.47;;;20.10;20.07
62524;BME280;53689;56.878;60.672;2023-05-19T05:39:12;99075.66;;;20.16;20.35
62524;BME280;53689;56.878;60.672;2023-05-19T05:41:41;99071.47;;;20.30;20.14
62524;BME280;53689;56.878;60.672;2023-05-19T05:44:12;99064.38;;;20.29;20.33
62524;BME280;53689;56.878;60.672;2023-05-19T05:46:42;99065.34;;;20.53;20.21
62524;BME280;53689;56.878;60.672;2023-05-19T05:49:10;99074.28;;;20.54;19.56
62524;BME280;53689;56.878;60.672;2023-05-19T05:51:39;99057.47;;;20.43;20.35
62524;BME280;53689;56.878;60.672;2023-05-19T05:54:11;99069.47;;;20.80;20.49
62524;BME280;53689;56.878;60.672;2023-05-19T05:56:43;99056.59;;;20.59;19.99
62524;BME280;53689;56.878;60.672;2023-05-19T05:59:13;99064.53;;;20.44;19.89
62524;BME280;53689;56.878;60.672;2023-05-19T06:01:40;99068.69;;;20.72;19.65
62524;BME280;53689;56.878;60.672;2023-05-19T06:04:08;99065.09;;;20.96;19.79
62524;BME280;53689;56.878;60.672;2023-05-19T06:06:35;99059.84;;;21.03;19.51
62524;BME280;53689;56.878;60.672;2023-05-19T06:09:03;99059.22;;;20.92;19.59
62524;BME280;53689;56.878;60.672;2023-05-19T06:11:31;99065.53;;;20.51;19.12
62524;BME280;53689;56.878;60.672;2023-05-19T06:13:58;99061.66;;;20.37;19.59
62524;BME280;53689;56.878;60.672;2023-05-19T06:16:46;99050.59;;;20.41;20.18
62524;BME280;53689;56.878;60.672;2023-05-19T06:19:15;99060.59;;;20.80;19.28
62524;BME280;53689;56.878;60.672;2023-05-19T06:21:43;99054.81;;;21.00;19.73
62524;BME280;53689;56.878;60.672;2023-05-19T06:24:11;99059.25;;;20.84;19.07
62524;BME280;53689;56.878;60.672;2023-05-19T06:26:38;99049.25;;;20.28;20.02
62524;BME280;53689;56.878;60.672;2023-05-19T06:29:05;99051.09;;;21.01;20.04
62524;BME280;53689;56.878;60.672;2023-05-19T06:31:33;99044.59;;;20.78;20.06
62524;BME280;53689;56.878;60.672;2023-05-19T06:34:13;99046.75;;;20.35;19.99
62524;BME280;53689;56.878;60.672;2023-05-19T06:36:41;99049.47;;;20.75;19.46
62524;BME280;53689;56.878;60.672;2023-05-19T06:39:09;99040.13;;;20.54;19.60
62524;BME280;53689;56.878;60.672;2023-05-19T06:41:36;99042.84;;;20.29;19.23
62524;BME280;53689;56.878;60.672;2023-05-19T06:44:05;99043.53;;;20.40;18.88
62524;BME280;53689;56.878;60.672;2023-05-19T06:46:33;99042.84;;;20.29;19.24
62524;BME280;53689;56.878;60.672;2023-05-19T06:49:00;99042.19;;;20.35;20.40
62524;BME280;53689;56.878;60.672;2023-05-19T06:51:33;99035.34;;;20.16;19.34
62524;BME280;53689;56.878;60.672;2023-05-19T06:54:00;99029.22;;;20.56;19.25
62524;BME280;53689;56.878;60.672;2023-05-19T06:56:27;99015.41;;;20.59;19.65
62524;BME280;53689;56.878;60.672;2023-05-19T06:58:54;99014.50;;;20.18;19.24
62524;BME280;53689;56.878;60.672;2023-05-19T07:01:28;99024.22;;;20.36;18.60
62524;BME280;53689;56.878;60.672;2023-05-19T07:03:57;99019.34;;;20.40;20.37
62524;BME280;53689;56.878;60.672;2023-05-19T07:06:24;99025.09;;;20.12;19.09
62524;BME280;53689;56.878;60.672;2023-05-19T07:08:53;99027.56;;;20.46;18.79
62524;BME280;53689;56.878;60.672;2023-05-19T07:11:21;99019.25;;;20.64;18.62
62524;BME280;53689;56.878;60.672;2023-05-19T07:13:48;99012.81;;;20.26;18.86
62524;BME280;53689;56.878;60.672;2023-05-19T07:16:21;99014.09;;;20.55;18.33
62524;BME280;53689;56.878;60.672;2023-05-19T07:18:49;99011.94;;;20.42;18.47
62524;BME280;53689;56.878;60.672;2023-05-19T07:21:16;99010.66;;;20.69;17.89
62524;BME280;53689;56.878;60.672;2023-05-19T07:23:45;99013.22;;;20.54;18.53
62524;BME280;53689;56.878;60.672;2023-05-19T07:26:14;99013.19;;;20.71;18.74
62524;BME280;53689;56.878;60.672;2023-05-19T07:28:41;99004.81;;;20.57;18.28
62524;BME280;53689;56.878;60.672;2023-05-19T07:31:08;99009.03;;;20.51;17.72
62524;BME280;53689;56.878;60.672;2023-05-19T07:33:35;99006.75;;;20.80;17.60
62524;BME280;53689;56.878;60.672;2023-05-19T07:36:03;99004.84;;;20.97;17.37
62524;BME280;53689;56.878;60.672;2023-05-19T07:38:30;98998.81;;;20.95;18.23
62524;BME280;53689;56.878;60.672;2023-05-19T07:40:57;98999.50;;;20.89;17.99
62524;BME280;53689;56.878;60.672;2023-05-19T07:43:27;99003.06;;;20.89;17.73
62524;BME280;53689;56.878;60.672;2023-05-19T07:45:54;98990.91;;;20.93;17.78
62524;BME280;53689;56.878;60.672;2023-05-19T07:48:23;98997.34;;;20.84;18.45
62524;BME280;53689;56.878;60.672;2023-05-19T07:50:51;98992.06;;;20.99;18.03
62524;BME280;53689;56.878;60.672;2023-05-19T07:53:18;99002.03;;;20.90;17.97
62524;BME280;53689;56.878;60.672;2023-05-19T07:55:46;98992.44;;;20.88;17.80
62524;BME280;53689;56.878;60.672;2023-05-19T07:58:13;98991.97;;;20.76;18.34
62524;BME280;53689;56.878;60.672;2023-05-19T08:00:42;98991.72;;;20.54;18.50
62524;BME280;53689;56.878;60.672;2023-05-19T08:03:09;98989.75;;;20.79;19.35
62524;BME280;53689;56.878;60.672;2023-05-19T08:05:36;98984.22;;;20.81;18.83
62524;BME280;53689;56.878;60.672;2023-05-19T08:08:03;98980.66;;;20.89;18.31
62524;BME280;53689;56.878;60.672;2023-05-19T08:10:31;98988.31;;;20.69;18.39
62524;BME280;53689;56.878;60.672;2023-05-19T08:12:59;98985.66;;;20.60;19.10
62524;BME280;53689;56.878;60.672;2023-05-19T08:15:27;98976.00;;;20.83;18.68
62524;BME280;53689;56.878;60.672;2023-05-19T08:17:56;98975.84;;;20.68;18.58
62524;BME280;53689;56.878;60.672;2023-05-19T08:20:23;98969.91;;;20.89;19.29
62524;BME280;53689;56.878;60.672;2023-05-19T08:22:51;98971.56;;;20.90;18.88
62524;BME280;53689;56.878;60.672;2023-05-19T08:25:18;98968.75;;;20.83;19.01
62524;BME280;53689;56.878;60.672;2023-05-19T08:27:45;98971.28;;;20.85;19.33
62524;BME280;53689;56.878;60.672;2023-05-19T08:30:12;98967.91;;;21.14;19.53
62524;BME280;53689;56.878;60.672;2023-05-19T08:32:39;98965.34;;;21.21;19.21
62524;BME280;53689;56.878;60.672;2023-05-19T08:35:09;98960.97;;;21.67;19.45
62524;BME280;53689;56.878;60.672;2023-05-19T08:37:36;98960.63;;;21.46;19.39
62524;BME280;53689;56.878;60.672;2023-05-19T08:40:04;98955.75;;;20.95;20.04
62524;BME280;53689;56.878;60.672;2023-05-19T08:42:31;98958.31;;;20.88;20.23
62524;BME280;53689;56.878;60.672;2023-05-19T08:44:59;98961.66;;;21.22;20.37
62524;BME280;53689;56.878;60.672;2023-05-19T08:47:27;98959.78;;;20.91;20.55
62524;BME280;53689;56.878;60.672;2023-05-19T08:49:56;98966.09;;;21.06;20.91
62524;BME280;53689;56.878;60.672;2023-05-19T08:52:30;98968.19;;;20.96;20.51
62524;BME280;53689;56.878;60.672;2023-05-19T08:55:04;98965.66;;;20.95;20.70
62524;BME280;53689;56.878;60.672;2023-05-19T08:57:35;98965.41;;;21.13;21.39
62524;BME280;53689;56.878;60.672;2023-05-19T09:00:02;98968.91;;;21.13;21.03
62524;BME280;53689;56.878;60.672;2023-05-19T09:02:30;98963.69;;;21.20;20.43
62524;BME280;53689;56.878;60.672;2023-05-19T09:04:59;98959.66;;;21.39;20.84
62524;BME280;53689;56.878;60.672;2023-05-19T09:07:29;98965.34;;;21.21;21.07
62524;BME280;53689;56.878;60.672;2023-05-19T09:09:57;98962.75;;;21.04;20.74
62524;BME280;53689;56.878;60.672;2023-05-19T09:12:25;98966.19;;;21.21;20.57
62524;BME280;53689;56.878;60.672;2023-05-19T09:14:52;98961.53;;;21.15;20.95
62524;BME280;53689;56.878;60.672;2023-05-19T09:17:19;98962.47;;;21.23;20.79
62524;BME280;53689;56.878;60.672;2023-05-19T09:19:47;98961.75;;;21.29;21.04
62524;BME280;53689;56.878;60.672;2023-05-19T09:22:14;98960.09;;;21.28;20.33
62524;BME280;53689;56.878;60.672;2023-05-19T09:24:44;98957.69;;;21.33;20.79
62524;BME280;53689;56.878;60.672;2023-05-19T09:27:13;98947.06;;;21.40;20.84
62524;BME280;53689;56.878;60.672;2023-05-19T09:29:40;98951.56;;;21.62;20.91
62524;BME280;53689;56.878;60.672;2023-05-19T09:32:07;98953.84;;;21.51;20.82
62524;BME280;53689;56.878;60.672;2023-05-19T09:34:38;98949.78;;;21.55;20.75
62524;BME280;53689;56.878;60.672;2023-05-19T09:37:06;98943.66;;;21.61;20.48
62524;BME280;53689;56.878;60.672;2023-05-19T09:39:33;98952.97;;;21.35;20.19
62524;BME280;53689;56.878;60.672;2023-05-19T09:42:03;98950.28;;;21.58;22.40
62524;BME280;53689;56.878;60.672;2023-05-19T09:44:30;98952.88;;;21.67;22.01
62524;BME280;53689;56.878;60.672;2023-05-19T09:46:57;98939.34;;;21.52;20.62
62524;BME280;53689;56.878;60.672;2023-05-19T09:49:25;98946.13;;;21.47;21.27
62524;BME280;53689;56.878;60.672;2023-05-19T09:51:52;98942.25;;;21.27;21.86
62524;BME280;53689;56.878;60.672;2023-05-19T09:54:20;98934.75;;;21.60;21.23
62524;BME280;53689;56.878;60.672;2023-05-19T09:56:51;98929.44;;;21.75;20.76
62524;BME280;53689;56.878;60.672;2023-05-19T09:59:24;98936.50;;;21.76;21.06
62524;BME280;53689;56.878;60.672;2023-05-19T10:01:52;98941.25;;;21.74;21.16
62524;BME280;53689;56.878;60.672;2023-05-19T10:04:21;98941.53;;;21.33;21.38
62524;BME280;53689;56.878;60.672;2023-05-19T10:06:49;98939.94;;;21.62;20.92
62524;BME280;53689;56.878;60.672;2023-05-19T10:09:17;98939.41;;;21.67;22.45
62524;BME280;53689;56.878;60.672;2023-05-19T10:11:44;98940.16;;;21.37;21.31
62524;BME280;53689;56.878;60.672;2023-05-19T10:14:12;98936.81;;;21.35;20.79
62524;BME280;53689;56.878;60.672;2023-05-19T10:16:42;98936.41;;;21.70;21.37
62524;BME280;53689;56.878;60.672;2023-05-19T10:19:10;98918.38;;;21.85;21.12
62524;BME280;53689;56.878;60.672;2023-05-19T10:21:38;98921.38;;;21.90;21.23
62524;BME280;53689;56.878;60.672;2023-05-19T10:24:05;98925.09;;;22.04;21.14
62524;BME280;53689;56.878;60.672;2023-05-19T10:26:34;98926.56;;;21.77;21.69
62524;BME280;53689;56.878;60.672;2023-05-19T10:29:02;98922.00;;;21.78;21.31
62524;BME280;53689;56.878;60.672;2023-05-19T10:31:31;98921.28;;;21.60;21.10
62524;BME280;53689;56.878;60.672;2023-05-19T10:34:04;98915.59;;;21.55;20.87
62524;BME280;53689;56.878;60.672;2023-05-19T10:36:40;98918.34;;;21.47;21.26
62524;BME280;53689;56.878;60.672;2023-05-19T10:39:10;98915.91;;;21.60;22.21
62524;BME280;53689;56.878;60.672;2023-05-19T10:41:46;98922.22;;;21.91;20.98
62524;BME280;53689;56.878;60.672;2023-05-19T10:44:16;98906.31;;;21.58;21.30
62524;BME280;53689;56.878;60.672;2023-05-19T10:46:46;98912.09;;;21.93;21.26
62524;BME280;53689;56.878;60.672;2023-05-19T10:49:20;98910.84;;;21.96;20.87
62524;BME280;53689;56.878;60.672;2023-05-19T10:51:47;98915.47;;;21.72;20.44
62524;BME280;53689;56.878;60.672;2023-05-19T10:54:15;98913.09;;;21.77;20.33
62524;BME280;53689;56.878;60.672;2023-05-19T10:56:42;98910.97;;;21.64;19.98
62524;BME280;53689;56.878;60.672;2023-05-19T10:59:28;98910.75;;;21.51;19.56
62524;BME280;53689;56.878;60.672;2023-05-19T11:01:56;98909.28;;;21.86;20.50
62524;BME280;53689;56.878;60.672;2023-05-19T11:04:38;98904.63;;;21.80;19.89
62524;BME280;53689;56.878;60.672;2023-05-19T11:07:13;98907.88;;;21.75;20.18
62524;BME280;53689;56.878;60.672;2023-05-19T11:09:41;98907.03;;;21.90;20.40
62524;BME280;53689;56.878;60.672;2023-05-19T11:12:08;98899.63;;;21.92;19.93
62524;BME280;53689;56.878;60.672;2023-05-19T11:14:36;98905.66;;;21.94;19.69
62524;BME280;53689;56.878;60.672;2023-05-19T11:17:04;98901.78;;;21.97;19.65
62524;BME280;53689;56.878;60.672;2023-05-19T11:19:50;98906.47;;;21.95;19.79
62524;BME280;53689;56.878;60.672;2023-05-19T11:22:21;98896.72;;;22.09;19.87
62524;BME280;53689;56.878;60.672;2023-05-19T11:24:49;98894.41;;;22.21;19.80
62524;BME280;53689;56.878;60.672;2023-05-19T11:27:19;98900.84;;;22.04;19.95
62524;BME280;53689;56.878;60.672;2023-05-19T11:29:47;98898.41;;;22.10;19.83
62524;BME280;53689;56.878;60.672;2023-05-19T11:32:14;98879.91;;;21.92;19.85
62524;BME280;53689;56.878;60.672;2023-05-19T11:34:44;98888.16;;;22.05;19.63
62524;BME280;53689;56.878;60.672;2023-05-19T11:37:11;98885.13;;;21.93;19.52
62524;BME280;53689;56.878;60.672;2023-05-19T11:39:38;98890.31;;;21.95;18.96
62524;BME280;53689;56.878;60.672;2023-05-19T11:42:07;98890.91;;;22.20;19.30
62524;BME280;53689;56.878;60.672;2023-05-19T11:44:34;98898.06;;;22.13;19.69
62524;BME280;53689;56.878;60.672;2023-05-19T11:47:02;98894.50;;;22.27;19.60
62524;BME280;53689;56.878;60.672;2023-05-19T11:49:29;98891.53;;;21.92;19.27
62524;BME280;53689;56.878;60.672;2023-05-19T11:51:58;98887.69;;;21.71;19.51
62524;BME280;53689;56.878;60.672;2023-05-19T11:54:28;98892.81;;;21.81;19.11
62524;BME280;53689;56.878;60.672;2023-05-19T11:56:56;98887.44;;;21.81;19.24
62524;BME280;53689;56.878;60.672;2023-05-19T11:59:29;98887.53;;;22.03;19.60
62524;BME280;53689;56.878;60.672;2023-05-19T12:02:01;98881.19;;;21.96;19.24
62524;BME280;53689;56.878;60.672;2023-05-19T12:04:29;98886.31;;;22.06;19.78
62524;BME280;53689;56.878;60.672;2023-05-19T12:06:58;98887.63;;;22.25;19.42
62524;BME280;53689;56.878;60.672;2023-05-19T12:09:26;98883.91;;;22.26;18.75
62524;BME280;53689;56.878;60.672;2023-05-19T12:11:54;98881.09;;;22.19;19.66
62524;BME280;53689;56.878;60.672;2023-05-19T12:14:21;98882.78;;;22.35;19.06
62524;BME280;53689;56.878;60.672;2023-05-19T12:16:49;98874.78;;;22.27;19.66
62524;BME280;53689;56.878;60.672;2023-05-19T12:19:17;98887.34;;;22.35;19.29
62524;BME280;53689;56.878;60.672;2023-05-19T12:21:45;98881.38;;;22.39;19.00
62524;BME280;53689;56.878;60.672;2023-05-19T12:24:14;98881.03;;;21.97;19.34
62524;BME280;53689;56.878;60.672;2023-05-19T12:26:42;98880.28;;;22.03;19.60
62524;BME280;53689;56.878;60.672;2023-05-19T12:29:09;98873.31;;;22.24;18.84
62524;BME280;53689;56.878;60.672;2023-05-19T12:31:38;98877.09;;;22.30;19.38
62524;BME280;53689;56.878;60.672;2023-05-19T12:34:06;98874.03;;;22.18;19.55
62524;BME280;53689;56.878;60.672;2023-05-19T12:36:33;98873.88;;;22.20;19.61
62524;BME280;53689;56.878;60.672;2023-05-19T12:39:01;98878.03;;;22.37;19.17
62524;BME280;53689;56.878;60.672;2023-05-19T12:41:32;98884.63;;;22.35;19.06
62524;BME280;53689;56.878;60.672;2023-05-19T12:44:00;98877.78;;;22.02;18.93
62524;BME280;53689;56.878;60.672;2023-05-19T12:46:27;98880.66;;;22.15;19.05
62524;BME280;53689;56.878;60.672;2023-05-19T12:48:59;98879.91;;;21.92;18.73
62524;BME280;53689;56.878;60.672;2023-05-19T12:51:26;98881.97;;;22.04;18.25
62524;BME280;53689;56.878;60.672;2023-05-19T12:53:53;98875.16;;;22.24;18.91
62524;BME280;53689;56.878;60.672;2023-05-19T12:56:23;98882.88;;;22.42;19.21
62524;BME280;53689;56.878;60.672;2023-05-19T12:58:53;98877.41;;;22.50;18.02